sensor_id;sensor_type;location;lat;lon;timestamp;P1;durP1;ratioP1;P2;durP2;ratioP2
22191;SDS011;11261;52.456;10.850;2022-07-29T00:00:39;2.42;;;0.85;;
22191;SDS011;11261;52.456;10.850;2022-07-29T00:03:07;1.25;;;0.80;;
22191;SDS011;11261;52.456;10.850;2022-07-29T00:05:37;1.70;;;0.70;;
22191;SDS011;11261;52.456;10.850;2022-07-29T00:08:06;2.80;;;0.93;;
22191;SDS011;11261;52.456;10.850;2022-07-29T00:10:38;1.92;;;0.80;;
22191;SDS011;11261;52.456;10.850;2022-07-29T00:13:06;2.40;;;0.85;;
22191;SDS011;11261;52.456;10.850;2022-07-29T00:15:35;0.70;;;0.70;;
22191;SDS011;11261;52.456;10.850;2022-07-29T00:18:03;1.23;;;0.82;;
22191;SDS011;11261;52.456;10.850;2022-07-29T00:20:31;2.33;;;0.80;;
22191;SDS011;11261;52.456;10.850;2022-07-29T00:23:01;1.35;;;1.20;;
22191;SDS011;11261;52.456;10.850;2022-07-29T00:25:29;2.28;;;0.70;;
22191;SDS011;11261;52.456;10.850;2022-07-29T00:27:59;2.22;;;0.80;;
22191;SDS011;11261;52.456;10.850;2022-07-29T00:30:27;1.77;;;0.75;;
22191;SDS011;11261;52.456;10.850;2022-07-29T00:32:55;1.02;;;0.82;;
22191;SDS011;11261;52.456;10.850;2022-07-29T00:35:24;2.00;;;0.57;;
22191;SDS011;11261;52.456;10.850;2022-07-29T00:38:11;2.97;;;1.02;;
22191;SDS011;11261;52.456;10.850;2022-07-29T00:40:40;6.93;;;1.65;;
22191;SDS011;11261;52.456;10.850;2022-07-29T00:43:09;1.67;;;0.85;;
22191;SDS011;11261;52.456;10.850;2022-07-29T00:45:38;1.00;;;0.75;;
22191;SDS011;11261;52.456;10.850;2022-07-29T00:48:06;2.47;;;0.60;;
22191;SDS011;11261;52.456;10.850;2022-07-29T00:50:35;1.02;;;0.70;;
22191;SDS011;11261;52.456;10.850;2022-07-29T00:53:05;2.97;;;0.80;;
22191;SDS011;11261;52.456;10.850;2022-07-29T00:55:35;2.50;;;0.75;;
22191;SDS011;11261;52.456;10.850;2022-07-29T00:58:04;1.60;;;1.10;;
22191;SDS011;11261;52.456;10.850;2022-07-29T01:00:33;1.73;;;0.70;;
22191;SDS011;11261;52.456;10.850;2022-07-29T01:03:02;1.10;;;0.73;;
22191;SDS011;11261;52.456;10.850;2022-07-29T01:05:30;2.63;;;1.13;;
22191;SDS011;11261;52.456;10.850;2022-07-29T01:08:16;2.45;;;0.80;;
22191;SDS011;11261;52.456;10.850;2022-07-29T01:10:47;1.83;;;0.80;;
22191;SDS011;11261;52.456;10.850;2022-07-29T01:13:16;2.92;;;1.40;;
22191;SDS011;11261;52.456;10.850;2022-07-29T01:15:47;1.77;;;1.00;;
22191;SDS011;11261;52.456;10.850;2022-07-29T01:18:20;0.88;;;0.85;;
22191;SDS011;11261;52.456;10.850;2022-07-29T01:20:56;1.48;;;0.90;;
22191;SDS011;11261;52.456;10.850;2022-07-29T01:23:48;2.67;;;0.75;;
22191;SDS011;11261;52.456;10.850;2022-07-29T01:26:37;0.95;;;0.80;;
22191;SDS011;11261;52.456;10.850;2022-07-29T01:29:17;2.35;;;0.95;;
22191;SDS011;11261;52.456;10.850;2022-07-29T01:31:56;2.40;;;1.00;;
22191;SDS011;11261;52.456;10.850;2022-07-29T01:34:30;0.95;;;0.80;;
22191;SDS011;11261;52.456;10.850;2022-07-29T01:37:05;1.38;;;0.90;;
22191;SDS011;11261;52.456;10.850;2022-07-29T01:39:42;2.42;;;0.90;;
22191;SDS011;11261;52.456;10.850;2022-07-29T01:42:14;1.42;;;0.80;;
22191;SDS011;11261;52.456;10.850;2022-07-29T01:44:54;1.77;;;0.90;;
22191;SDS011;11261;52.456;10.850;2022-07-29T01:47:30;2.85;;;0.90;;
22191;SDS011;11261;52.456;10.850;2022-07-29T01:50:03;6.35;;;1.10;;
22191;SDS011;11261;52.456;10.850;2022-07-29T01:52:36;1.60;;;1.10;;
22191;SDS011;11261;52.456;10.850;2022-07-29T01:55:10;1.88;;;1.20;;
22191;SDS011;11261;52.456;10.850;2022-07-29T01:57:42;1.08;;;0.93;;
22191;SDS011;11261;52.456;10.850;2022-07-29T02:00:15;1.55;;;0.82;;
22191;SDS011;11261;52.456;10.850;2022-07-29T02:02:44;1.70;;;0.80;;
22191;SDS011;11261;52.456;10.850;2022-07-29T02:05:15;3.95;;;0.90;;
22191;SDS011;11261;52.456;10.850;2022-07-29T02:07:47;1.35;;;1.10;;
22191;SDS011;11261;52.456;10.850;2022-07-29T02:10:17;1.58;;;0.90;;
22191;SDS011;11261;52.456;10.850;2022-07-29T02:12:51;1.60;;;1.02;;
22191;SDS011;11261;52.456;10.850;2022-07-29T02:15:23;2.50;;;1.02;;
22191;SDS011;11261;52.456;10.850;2022-07-29T02:17:54;2.03;;;0.90;;
22191;SDS011;11261;52.456;10.850;2022-07-29T02:20:26;1.63;;;0.90;;
22191;SDS011;11261;52.456;10.850;2022-07-29T02:22:56;1.77;;;0.98;;
22191;SDS011;11261;52.456;10.850;2022-07-29T02:25:26;1.75;;;1.35;;
22191;SDS011;11261;52.456;10.850;2022-07-29T02:28:03;2.33;;;1.08;;
22191;SDS011;11261;52.456;10.850;2022-07-29T02:30:35;4.00;;;1.25;;
22191;SDS011;11261;52.456;10.850;2022-07-29T02:33:07;3.85;;;1.35;;
22191;SDS011;11261;52.456;10.850;2022-07-29T02:35:37;4.57;;;1.25;;
22191;SDS011;11261;52.456;10.850;2022-07-29T02:38:07;2.05;;;1.10;;
22191;SDS011;11261;52.456;10.850;2022-07-29T02:40:56;2.40;;;1.10;;
22191;SDS011;11261;52.456;10.850;2022-07-29T02:43:26;1.42;;;0.93;;
22191;SDS011;11261;52.456;10.850;2022-07-29T02:45:57;1.48;;;0.85;;
22191;SDS011;11261;52.456;10.850;2022-07-29T02:48:40;2.03;;;1.20;;
22191;SDS011;11261;52.456;10.850;2022-07-29T02:51:12;3.65;;;0.98;;
22191;SDS011;11261;52.456;10.850;2022-07-29T02:54:06;1.73;;;1.00;;
22191;SDS011;11261;52.456;10.850;2022-07-29T02:56:37;2.75;;;0.98;;
22191;SDS011;11261;52.456;10.850;2022-07-29T02:59:08;2.13;;;1.08;;
22191;SDS011;11261;52.456;10.850;2022-07-29T03:01:41;4.03;;;1.00;;
22191;SDS011;11261;52.456;10.850;2022-07-29T03:04:11;1.10;;;1.00;;
22191;SDS011;11261;52.456;10.850;2022-07-29T03:06:42;1.65;;;0.93;;
22191;SDS011;11261;52.456;10.850;2022-07-29T03:09:11;1.40;;;1.05;;
22191;SDS011;11261;52.456;10.850;2022-07-29T03:11:41;2.03;;;0.77;;
22191;SDS011;11261;52.456;10.850;2022-07-29T03:14:16;3.90;;;1.02;;
22191;SDS011;11261;52.456;10.850;2022-07-29T03:16:48;3.63;;;1.30;;
22191;SDS011;11261;52.456;10.850;2022-07-29T03:19:18;2.25;;;1.17;;
22191;SDS011;11261;52.456;10.850;2022-07-29T03:21:48;2.70;;;1.20;;
22191;SDS011;11261;52.456;10.850;2022-07-29T03:24:26;2.67;;;1.40;;
22191;SDS011;11261;52.456;10.850;2022-07-29T03:26:56;2.83;;;1.40;;
22191;SDS011;11261;52.456;10.850;2022-07-29T03:29:24;1.77;;;1.08;;
22191;SDS011;11261;52.456;10.850;2022-07-29T03:32:01;1.40;;;1.20;;
22191;SDS011;11261;52.456;10.850;2022-07-29T03:34:34;1.58;;;1.00;;
22191;SDS011;11261;52.456;10.850;2022-07-29T03:37:03;1.77;;;1.30;;
22191;SDS011;11261;52.456;10.850;2022-07-29T03:39:34;1.17;;;0.98;;
22191;SDS011;11261;52.456;10.850;2022-07-29T03:42:06;2.55;;;1.30;;
22191;SDS011;11261;52.456;10.850;2022-07-29T03:44:36;1.27;;;1.08;;
22191;SDS011;11261;52.456;10.850;2022-07-29T03:47:07;1.48;;;1.30;;
22191;SDS011;11261;52.456;10.850;2022-07-29T03:49:38;1.15;;;1.00;;
22191;SDS011;11261;52.456;10.850;2022-07-29T03:52:08;3.13;;;1.48;;
22191;SDS011;11261;52.456;10.850;2022-07-29T03:54:36;1.95;;;1.30;;
22191;SDS011;11261;52.456;10.850;2022-07-29T03:57:05;3.60;;;1.50;;
22191;SDS011;11261;52.456;10.850;2022-07-29T03:59:34;2.03;;;1.50;;
22191;SDS011;11261;52.456;10.850;2022-07-29T04:02:04;3.10;;;1.92;;
22191;SDS011;11261;52.456;10.850;2022-07-29T04:04:36;3.33;;;1.60;;
22191;SDS011;11261;52.456;10.850;2022-07-29T04:07:05;4.75;;;1.88;;
22191;SDS011;11261;52.456;10.850;2022-07-29T04:09:33;2.13;;;1.48;;
22191;SDS011;11261;52.456;10.850;2022-07-29T04:12:01;2.75;;;1.60;;
22191;SDS011;11261;52.456;10.850;2022-07-29T04:14:30;1.67;;;1.27;;
22191;SDS011;11261;52.456;10.850;2022-07-29T04:16:59;4.47;;;1.77;;
22191;SDS011;11261;52.456;10.850;2022-07-29T04:19:30;4.15;;;1.52;;
22191;SDS011;11261;52.456;10.850;2022-07-29T04:21:59;3.30;;;1.75;;
22191;SDS011;11261;52.456;10.850;2022-07-29T04:24:28;2.42;;;1.50;;
22191;SDS011;11261;52.456;10.850;2022-07-29T04:26:56;3.88;;;1.65;;
22191;SDS011;11261;52.456;10.850;2022-07-29T04:29:25;4.07;;;1.42;;
22191;SDS011;11261;52.456;10.850;2022-07-29T04:31:53;2.83;;;1.52;;
22191;SDS011;11261;52.456;10.850;2022-07-29T04:34:21;3.67;;;1.75;;
22191;SDS011;11261;52.456;10.850;2022-07-29T04:36:54;4.90;;;1.73;;
22191;SDS011;11261;52.456;10.850;2022-07-29T04:39:23;2.50;;;1.55;;
22191;SDS011;11261;52.456;10.850;2022-07-29T04:41:55;3.35;;;1.90;;
22191;SDS011;11261;52.456;10.850;2022-07-29T04:44:24;3.28;;;1.70;;
22191;SDS011;11261;52.456;10.850;2022-07-29T04:46:54;3.55;;;1.63;;
22191;SDS011;11261;52.456;10.850;2022-07-29T04:49:24;3.17;;;1.52;;
22191;SDS011;11261;52.456;10.850;2022-07-29T04:51:52;3.75;;;2.20;;
22191;SDS011;11261;52.456;10.850;2022-07-29T04:54:22;1.85;;;1.40;;
22191;SDS011;11261;52.456;10.850;2022-07-29T04:56:50;5.28;;;1.58;;
22191;SDS011;11261;52.456;10.850;2022-07-29T04:59:19;3.50;;;1.58;;
22191;SDS011;11261;52.456;10.850;2022-07-29T05:01:47;3.50;;;1.55;;
22191;SDS011;11261;52.456;10.850;2022-07-29T05:04:15;5.88;;;1.55;;
22191;SDS011;11261;52.456;10.850;2022-07-29T05:06:45;5.22;;;1.98;;
22191;SDS011;11261;52.456;10.850;2022-07-29T05:09:14;1.95;;;1.20;;
22191;SDS011;11261;52.456;10.850;2022-07-29T05:11:42;1.85;;;1.45;;
22191;SDS011;11261;52.456;10.850;2022-07-29T05:14:10;1.67;;;1.58;;
22191;SDS011;11261;52.456;10.850;2022-07-29T05:16:39;2.13;;;1.80;;
22191;SDS011;11261;52.456;10.850;2022-07-29T05:19:08;3.03;;;1.75;;
22191;SDS011;11261;52.456;10.850;2022-07-29T05:21:40;3.38;;;1.83;;
22191;SDS011;11261;52.456;10.850;2022-07-29T05:24:08;2.30;;;1.60;;
22191;SDS011;11261;52.456;10.850;2022-07-29T05:26:37;3.35;;;1.30;;
22191;SDS011;11261;52.456;10.850;2022-07-29T05:29:06;1.83;;;1.10;;
22191;SDS011;11261;52.456;10.850;2022-07-29T05:31:54;2.53;;;1.52;;
22191;SDS011;11261;52.456;10.850;2022-07-29T05:34:23;7.43;;;1.80;;
22191;SDS011;11261;52.456;10.850;2022-07-29T05:36:51;6.32;;;1.70;;
22191;SDS011;11261;52.456;10.850;2022-07-29T05:39:19;3.97;;;1.77;;
22191;SDS011;11261;52.456;10.850;2022-07-29T05:42:09;3.88;;;2.20;;
22191;SDS011;11261;52.456;10.850;2022-07-29T05:44:38;4.03;;;1.90;;
22191;SDS011;11261;52.456;10.850;2022-07-29T05:47:06;2.10;;;1.38;;
22191;SDS011;11261;52.456;10.850;2022-07-29T05:49:34;5.57;;;1.95;;
22191;SDS011;11261;52.456;10.850;2022-07-29T05:52:03;2.20;;;1.80;;
22191;SDS011;11261;52.456;10.850;2022-07-29T05:54:31;3.58;;;1.92;;
22191;SDS011;11261;52.456;10.850;2022-07-29T05:56:59;1.90;;;1.42;;
22191;SDS011;11261;52.456;10.850;2022-07-29T05:59:29;3.55;;;1.95;;
22191;SDS011;11261;52.456;10.850;2022-07-29T06:01:57;5.13;;;1.85;;
22191;SDS011;11261;52.456;10.850;2022-07-29T06:04:26;3.63;;;1.80;;
22191;SDS011;11261;52.456;10.850;2022-07-29T06:06:54;4.07;;;2.00;;
22191;SDS011;11261;52.456;10.850;2022-07-29T06:09:23;4.07;;;2.03;;
22191;SDS011;11261;52.456;10.850;2022-07-29T06:11:52;2.80;;;2.05;;
22191;SDS011;11261;52.456;10.850;2022-07-29T06:14:20;6.88;;;2.05;;
22191;SDS011;11261;52.456;10.850;2022-07-29T06:16:50;2.08;;;1.52;;
22191;SDS011;11261;52.456;10.850;2022-07-29T06:19:19;5.15;;;2.35;;
22191;SDS011;11261;52.456;10.850;2022-07-29T06:21:47;2.15;;;1.80;;
22191;SDS011;11261;52.456;10.850;2022-07-29T06:24:15;3.40;;;2.03;;
22191;SDS011;11261;52.456;10.850;2022-07-29T06:26:44;3.45;;;2.30;;
22191;SDS011;11261;52.456;10.850;2022-07-29T06:29:13;4.22;;;2.40;;
22191;SDS011;11261;52.456;10.850;2022-07-29T06:31:41;3.10;;;2.13;;
22191;SDS011;11261;52.456;10.850;2022-07-29T06:34:10;4.22;;;2.30;;
22191;SDS011;11261;52.456;10.850;2022-07-29T06:36:39;5.30;;;1.63;;
22191;SDS011;11261;52.456;10.850;2022-07-29T06:39:08;6.85;;;2.20;;
22191;SDS011;11261;52.456;10.850;2022-07-29T06:41:37;4.70;;;1.95;;
22191;SDS011;11261;52.456;10.850;2022-07-29T06:44:06;4.88;;;1.85;;
22191;SDS011;11261;52.456;10.850;2022-07-29T06:46:34;4.25;;;2.20;;
22191;SDS011;11261;52.456;10.850;2022-07-29T06:49:03;2.55;;;1.65;;
22191;SDS011;11261;52.456;10.850;2022-07-29T06:51:33;2.63;;;1.98;;
22191;SDS011;11261;52.456;10.850;2022-07-29T06:54:02;4.18;;;2.05;;
22191;SDS011;11261;52.456;10.850;2022-07-29T06:56:33;3.25;;;1.88;;
22191;SDS011;11261;52.456;10.850;2022-07-29T06:59:05;2.58;;;1.77;;
22191;SDS011;11261;52.456;10.850;2022-07-29T07:01:34;4.78;;;1.92;;
22191;SDS011;11261;52.456;10.850;2022-07-29T07:04:04;5.25;;;2.05;;
22191;SDS011;11261;52.456;10.850;2022-07-29T07:06:33;3.03;;;2.10;;
22191;SDS011;11261;52.456;10.850;2022-07-29T07:09:02;3.65;;;2.17;;
22191;SDS011;11261;52.456;10.850;2022-07-29T07:11:30;4.65;;;2.05;;
22191;SDS011;11261;52.456;10.850;2022-07-29T07:13:58;4.20;;;1.75;;
22191;SDS011;11261;52.456;10.850;2022-07-29T07:16:29;2.63;;;1.98;;
22191;SDS011;11261;52.456;10.850;2022-07-29T07:18:57;5.72;;;2.10;;
22191;SDS011;11261;52.456;10.850;2022-07-29T07:21:26;4.70;;;2.10;;
22191;SDS011;11261;52.456;10.850;2022-07-29T07:23:57;5.53;;;1.92;;
22191;SDS011;11261;52.456;10.850;2022-07-29T07:26:27;4.18;;;1.80;;
22191;SDS011;11261;52.456;10.850;2022-07-29T07:28:55;1.63;;;1.45;;
22191;SDS011;11261;52.456;10.850;2022-07-29T07:31:24;3.20;;;2.10;;
22191;SDS011;11261;52.456;10.850;2022-07-29T07:33:52;2.45;;;1.80;;
22191;SDS011;11261;52.456;10.850;2022-07-29T07:36:20;2.90;;;1.73;;
22191;SDS011;11261;52.456;10.850;2022-07-29T07:38:49;3.00;;;1.98;;
22191;SDS011;11261;52.456;10.850;2022-07-29T07:41:19;3.70;;;2.30;;
22191;SDS011;11261;52.456;10.850;2022-07-29T07:43:48;3.80;;;1.90;;
22191;SDS011;11261;52.456;10.850;2022-07-29T07:46:16;4.07;;;1.98;;
22191;SDS011;11261;52.456;10.850;2022-07-29T07:48:44;3.17;;;1.80;;
22191;SDS011;11261;52.456;10.850;2022-07-29T07:51:13;2.95;;;2.10;;
22191;SDS011;11261;52.456;10.850;2022-07-29T07:53:41;5.30;;;1.85;;
22191;SDS011;11261;52.456;10.850;2022-07-29T07:56:10;3.53;;;2.10;;
22191;SDS011;11261;52.456;10.850;2022-07-29T07:58:40;3.60;;;1.92;;
22191;SDS011;11261;52.456;10.850;2022-07-29T08:01:08;4.07;;;1.80;;
22191;SDS011;11261;52.456;10.850;2022-07-29T08:03:37;3.97;;;2.00;;
22191;SDS011;11261;52.456;10.850;2022-07-29T08:06:05;4.45;;;1.85;;
22191;SDS011;11261;52.456;10.850;2022-07-29T08:08:33;4.85;;;1.50;;
22191;SDS011;11261;52.456;10.850;2022-07-29T08:11:02;6.95;;;1.85;;
22191;SDS011;11261;52.456;10.850;2022-07-29T08:13:35;7.28;;;2.10;;
22191;SDS011;11261;52.456;10.850;2022-07-29T08:16:06;3.03;;;1.75;;
22191;SDS011;11261;52.456;10.850;2022-07-29T08:18:39;3.75;;;1.67;;
22191;SDS011;11261;52.456;10.850;2022-07-29T08:21:08;3.40;;;1.77;;
22191;SDS011;11261;52.456;10.850;2022-07-29T08:23:40;3.55;;;1.98;;
22191;SDS011;11261;52.456;10.850;2022-07-29T08:26:25;5.15;;;1.70;;
22191;SDS011;11261;52.456;10.850;2022-07-29T08:28:53;5.22;;;2.05;;
22191;SDS011;11261;52.456;10.850;2022-07-29T08:31:22;4.10;;;1.88;;
22191;SDS011;11261;52.456;10.850;2022-07-29T08:33:51;5.40;;;2.08;;
22191;SDS011;11261;52.456;10.850;2022-07-29T08:36:19;6.07;;;2.20;;
22191;SDS011;11261;52.456;10.850;2022-07-29T08:38:48;3.20;;;1.77;;
22191;SDS011;11261;52.456;10.850;2022-07-29T08:41:17;3.35;;;1.67;;
22191;SDS011;11261;52.456;10.850;2022-07-29T08:43:46;5.07;;;2.03;;
22191;SDS011;11261;52.456;10.850;2022-07-29T08:46:14;5.15;;;2.20;;
22191;SDS011;11261;52.456;10.850;2022-07-29T08:48:44;2.72;;;1.70;;
22191;SDS011;11261;52.456;10.850;2022-07-29T08:51:14;9.95;;;2.05;;
22191;SDS011;11261;52.456;10.850;2022-07-29T08:53:44;5.60;;;2.00;;
22191;SDS011;11261;52.456;10.850;2022-07-29T08:56:15;3.72;;;1.95;;
22191;SDS011;11261;52.456;10.850;2022-07-29T08:58:45;5.18;;;1.63;;
22191;SDS011;11261;52.456;10.850;2022-07-29T09:01:21;2.55;;;1.60;;
22191;SDS011;11261;52.456;10.850;2022-07-29T09:04:10;3.75;;;1.67;;
22191;SDS011;11261;52.456;10.850;2022-07-29T09:06:42;2.67;;;1.50;;
22191;SDS011;11261;52.456;10.850;2022-07-29T09:09:12;2.70;;;1.88;;
22191;SDS011;11261;52.456;10.850;2022-07-29T09:11:41;4.90;;;1.40;;
22191;SDS011;11261;52.456;10.850;2022-07-29T09:14:11;3.53;;;1.63;;
22191;SDS011;11261;52.456;10.850;2022-07-29T09:16:44;3.20;;;1.70;;
22191;SDS011;11261;52.456;10.850;2022-07-29T09:19:29;2.30;;;1.40;;
22191;SDS011;11261;52.456;10.850;2022-07-29T09:21:58;4.38;;;1.77;;
22191;SDS011;11261;52.456;10.850;2022-07-29T09:24:39;5.35;;;1.60;;
22191;SDS011;11261;52.456;10.850;2022-07-29T09:27:18;3.67;;;1.70;;
22191;SDS011;11261;52.456;10.850;2022-07-29T09:29:55;3.25;;;1.38;;
22191;SDS011;11261;52.456;10.850;2022-07-29T09:32:24;2.88;;;1.95;;
22191;SDS011;11261;52.456;10.850;2022-07-29T09:37:49;4.50;;;1.90;;
22191;SDS011;11261;52.456;10.850;2022-07-29T09:40:19;5.88;;;1.88;;
22191;SDS011;11261;52.456;10.850;2022-07-29T09:42:48;2.88;;;1.48;;
22191;SDS011;11261;52.456;10.850;2022-07-29T09:45:26;5.25;;;1.80;;
22191;SDS011;11261;52.456;10.850;2022-07-29T09:47:56;3.15;;;1.77;;
22191;SDS011;11261;52.456;10.850;2022-07-29T09:50:38;3.97;;;1.65;;
22191;SDS011;11261;52.456;10.850;2022-07-29T09:53:07;3.13;;;1.60;;
22191;SDS011;11261;52.456;10.850;2022-07-29T09:55:46;2.95;;;1.80;;
22191;SDS011;11261;52.456;10.850;2022-07-29T09:58:18;1.95;;;1.45;;
22191;SDS011;11261;52.456;10.850;2022-07-29T10:00:47;2.85;;;1.63;;
22191;SDS011;11261;52.456;10.850;2022-07-29T10:03:17;6.20;;;1.75;;
22191;SDS011;11261;52.456;10.850;2022-07-29T10:06:03;2.10;;;1.30;;
22191;SDS011;11261;52.456;10.850;2022-07-29T10:08:32;7.18;;;1.60;;
22191;SDS011;11261;52.456;10.850;2022-07-29T10:11:11;4.05;;;1.70;;
22191;SDS011;11261;52.456;10.850;2022-07-29T10:13:41;2.53;;;1.67;;
22191;SDS011;11261;52.456;10.850;2022-07-29T10:16:10;3.38;;;1.70;;
22191;SDS011;11261;52.456;10.850;2022-07-29T10:18:39;4.50;;;1.73;;
22191;SDS011;11261;52.456;10.850;2022-07-29T10:21:10;2.83;;;1.40;;
22191;SDS011;11261;52.456;10.850;2022-07-29T10:23:58;4.45;;;1.40;;
22191;SDS011;11261;52.456;10.850;2022-07-29T10:26:27;4.32;;;1.55;;
22191;SDS011;11261;52.456;10.850;2022-07-29T10:28:56;4.80;;;1.60;;
22191;SDS011;11261;52.456;10.850;2022-07-29T10:31:27;2.40;;;1.58;;
22191;SDS011;11261;52.456;10.850;2022-07-29T10:34:03;1.80;;;1.25;;
22191;SDS011;11261;52.456;10.850;2022-07-29T10:36:47;6.85;;;1.50;;
22191;SDS011;11261;52.456;10.850;2022-07-29T10:39:26;5.45;;;1.70;;
22191;SDS011;11261;52.456;10.850;2022-07-29T10:42:11;5.45;;;1.60;;
22191;SDS011;11261;52.456;10.850;2022-07-29T10:44:59;3.70;;;1.40;;
22191;SDS011;11261;52.456;10.850;2022-07-29T10:47:29;3.05;;;1.27;;
22191;SDS011;11261;52.456;10.850;2022-07-29T10:50:02;2.70;;;1.50;;
22191;SDS011;11261;52.456;10.850;2022-07-29T10:55:30;2.83;;;1.23;;
22191;SDS011;11261;52.456;10.850;2022-07-29T10:58:11;4.30;;;1.70;;
22191;SDS011;11261;52.456;10.850;2022-07-29T11:00:43;4.53;;;1.65;;
22191;SDS011;11261;52.456;10.850;2022-07-29T11:06:16;2.08;;;1.38;;
22191;SDS011;11261;52.456;10.850;2022-07-29T11:11:50;3.83;;;1.40;;
22191;SDS011;11261;52.456;10.850;2022-07-29T11:14:20;4.53;;;1.60;;
22191;SDS011;11261;52.456;10.850;2022-07-29T11:17:25;3.88;;;1.35;;
22191;SDS011;11261;52.456;10.850;2022-07-29T11:20:33;3.00;;;1.45;;
22191;SDS011;11261;52.456;10.850;2022-07-29T11:23:19;1.63;;;1.15;;
22191;SDS011;11261;52.456;10.850;2022-07-29T11:28:48;6.40;;;1.40;;
22191;SDS011;11261;52.456;10.850;2022-07-29T11:31:20;3.28;;;1.35;;
22191;SDS011;11261;52.456;10.850;2022-07-29T11:39:45;4.30;;;1.40;;
22191;SDS011;11261;52.456;10.850;2022-07-29T11:45:10;4.85;;;1.42;;
22191;SDS011;11261;52.456;10.850;2022-07-29T11:48:01;2.03;;;1.40;;
22191;SDS011;11261;52.456;10.850;2022-07-29T11:50:52;3.40;;;1.23;;
22191;SDS011;11261;52.456;10.850;2022-07-29T11:53:23;4.43;;;1.40;;
22191;SDS011;11261;52.456;10.850;2022-07-29T11:55:57;3.15;;;1.65;;
22191;SDS011;11261;52.456;10.850;2022-07-29T11:58:30;3.72;;;1.58;;
22191;SDS011;11261;52.456;10.850;2022-07-29T12:00:58;4.53;;;1.70;;
22191;SDS011;11261;52.456;10.850;2022-07-29T12:03:30;2.15;;;1.40;;
22191;SDS011;11261;52.456;10.850;2022-07-29T12:06:02;2.72;;;1.50;;
22191;SDS011;11261;52.456;10.850;2022-07-29T12:08:38;2.47;;;1.40;;
22191;SDS011;11261;52.456;10.850;2022-07-29T12:11:14;1.98;;;1.23;;
22191;SDS011;11261;52.456;10.850;2022-07-29T12:13:48;1.90;;;0.93;;
22191;SDS011;11261;52.456;10.850;2022-07-29T12:16:16;4.70;;;1.40;;
22191;SDS011;11261;52.456;10.850;2022-07-29T12:18:57;2.08;;;1.55;;
22191;SDS011;11261;52.456;10.850;2022-07-29T12:21:27;2.22;;;1.52;;
22191;SDS011;11261;52.456;10.850;2022-07-29T12:23:56;2.72;;;1.60;;
22191;SDS011;11261;52.456;10.850;2022-07-29T12:26:34;1.52;;;1.30;;
22191;SDS011;11261;52.456;10.850;2022-07-29T12:29:07;3.95;;;1.25;;
22191;SDS011;11261;52.456;10.850;2022-07-29T12:31:45;3.20;;;1.30;;
22191;SDS011;11261;52.456;10.850;2022-07-29T12:34:15;4.35;;;1.45;;
22191;SDS011;11261;52.456;10.850;2022-07-29T12:36:43;2.65;;;1.35;;
22191;SDS011;11261;52.456;10.850;2022-07-29T12:39:11;2.25;;;1.42;;
22191;SDS011;11261;52.456;10.850;2022-07-29T12:41:40;3.80;;;1.40;;
22191;SDS011;11261;52.456;10.850;2022-07-29T12:44:10;4.25;;;1.67;;
22191;SDS011;11261;52.456;10.850;2022-07-29T12:46:38;2.28;;;1.30;;
22191;SDS011;11261;52.456;10.850;2022-07-29T12:49:07;1.95;;;1.38;;
22191;SDS011;11261;52.456;10.850;2022-07-29T12:51:36;2.92;;;1.33;;
22191;SDS011;11261;52.456;10.850;2022-07-29T12:54:06;4.10;;;1.30;;
22191;SDS011;11261;52.456;10.850;2022-07-29T12:56:36;2.35;;;1.20;;
22191;SDS011;11261;52.456;10.850;2022-07-29T12:59:18;4.35;;;1.08;;
22191;SDS011;11261;52.456;10.850;2022-07-29T13:01:47;1.52;;;1.02;;
22191;SDS011;11261;52.456;10.850;2022-07-29T13:04:26;3.25;;;1.10;;
22191;SDS011;11261;52.456;10.850;2022-07-29T13:06:58;2.95;;;1.25;;
22191;SDS011;11261;52.456;10.850;2022-07-29T13:09:37;2.25;;;1.40;;
22191;SDS011;11261;52.456;10.850;2022-07-29T13:12:06;3.63;;;1.40;;
22191;SDS011;11261;52.456;10.850;2022-07-29T13:14:38;2.20;;;1.35;;
22191;SDS011;11261;52.456;10.850;2022-07-29T13:17:08;2.97;;;1.45;;
22191;SDS011;11261;52.456;10.850;2022-07-29T13:19:38;2.53;;;1.02;;
22191;SDS011;11261;52.456;10.850;2022-07-29T13:22:07;1.25;;;0.93;;
22191;SDS011;11261;52.456;10.850;2022-07-29T13:24:44;1.75;;;1.20;;
22191;SDS011;11261;52.456;10.850;2022-07-29T13:27:14;1.60;;;1.00;;
22191;SDS011;11261;52.456;10.850;2022-07-29T13:29:44;3.80;;;1.45;;
22191;SDS011;11261;52.456;10.850;2022-07-29T13:32:13;3.20;;;1.10;;
22191;SDS011;11261;52.456;10.850;2022-07-29T13:34:41;1.42;;;1.17;;
22191;SDS011;11261;52.456;10.850;2022-07-29T13:37:10;1.23;;;1.10;;
22191;SDS011;11261;52.456;10.850;2022-07-29T13:39:38;4.13;;;1.20;;
22191;SDS011;11261;52.456;10.850;2022-07-29T13:42:07;2.25;;;1.50;;
22191;SDS011;11261;52.456;10.850;2022-07-29T13:44:36;4.30;;;1.50;;
22191;SDS011;11261;52.456;10.850;2022-07-29T13:47:06;2.15;;;1.40;;
22191;SDS011;11261;52.456;10.850;2022-07-29T13:49:35;3.45;;;1.48;;
22191;SDS011;11261;52.456;10.850;2022-07-29T13:52:03;2.95;;;1.60;;
22191;SDS011;11261;52.456;10.850;2022-07-29T13:54:33;1.65;;;1.17;;
22191;SDS011;11261;52.456;10.850;2022-07-29T13:57:07;1.88;;;1.20;;
22191;SDS011;11261;52.456;10.850;2022-07-29T13:59:37;4.80;;;1.50;;
22191;SDS011;11261;52.456;10.850;2022-07-29T14:02:07;3.40;;;1.20;;
22191;SDS011;11261;52.456;10.850;2022-07-29T14:04:36;5.18;;;1.50;;
22191;SDS011;11261;52.456;10.850;2022-07-29T14:07:05;2.38;;;1.40;;
22191;SDS011;11261;52.456;10.850;2022-07-29T14:09:33;3.30;;;1.48;;
22191;SDS011;11261;52.456;10.850;2022-07-29T14:12:07;3.25;;;1.35;;
22191;SDS011;11261;52.456;10.850;2022-07-29T14:14:36;2.40;;;1.63;;
22191;SDS011;11261;52.456;10.850;2022-07-29T14:17:04;3.35;;;1.50;;
22191;SDS011;11261;52.456;10.850;2022-07-29T14:19:34;1.52;;;1.10;;
22191;SDS011;11261;52.456;10.850;2022-07-29T14:22:04;2.70;;;1.50;;
22191;SDS011;11261;52.456;10.850;2022-07-29T14:24:34;6.05;;;2.90;;
22191;SDS011;11261;52.456;10.850;2022-07-29T14:27:03;3.33;;;1.40;;
22191;SDS011;11261;52.456;10.850;2022-07-29T14:29:32;1.52;;;1.20;;
22191;SDS011;11261;52.456;10.850;2022-07-29T14:32:04;3.20;;;1.40;;
22191;SDS011;11261;52.456;10.850;2022-07-29T14:34:35;4.13;;;1.20;;
22191;SDS011;11261;52.456;10.850;2022-07-29T14:37:03;1.90;;;1.38;;
22191;SDS011;11261;52.456;10.850;2022-07-29T14:39:33;3.35;;;1.02;;
22191;SDS011;11261;52.456;10.850;2022-07-29T14:42:08;2.67;;;1.30;;
22191;SDS011;11261;52.456;10.850;2022-07-29T14:44:38;2.47;;;1.10;;
22191;SDS011;11261;52.456;10.850;2022-07-29T14:47:07;2.63;;;1.30;;
22191;SDS011;11261;52.456;10.850;2022-07-29T14:49:38;1.80;;;1.35;;
22191;SDS011;11261;52.456;10.850;2022-07-29T14:52:07;3.10;;;1.45;;
22191;SDS011;11261;52.456;10.850;2022-07-29T14:54:35;3.50;;;1.50;;
22191;SDS011;11261;52.456;10.850;2022-07-29T14:57:03;2.78;;;1.30;;
22191;SDS011;11261;52.456;10.850;2022-07-29T14:59:31;3.03;;;1.60;;
22191;SDS011;11261;52.456;10.850;2022-07-29T15:01:59;1.83;;;1.30;;
22191;SDS011;11261;52.456;10.850;2022-07-29T15:04:29;1.80;;;1.40;;
22191;SDS011;11261;52.456;10.850;2022-07-29T15:06:58;2.83;;;1.30;;
22191;SDS011;11261;52.456;10.850;2022-07-29T15:09:27;2.47;;;1.35;;
22191;SDS011;11261;52.456;10.850;2022-07-29T15:11:55;5.95;;;1.60;;
22191;SDS011;11261;52.456;10.850;2022-07-29T15:14:23;1.77;;;1.20;;
22191;SDS011;11261;52.456;10.850;2022-07-29T15:16:52;6.57;;;1.50;;
22191;SDS011;11261;52.456;10.850;2022-07-29T15:19:20;3.35;;;1.42;;
22191;SDS011;11261;52.456;10.850;2022-07-29T15:21:48;2.10;;;1.45;;